Time;durP1;ratioP1;P1;durP2;ratioP2;P2;SDS_P1;SDS_P2;PMS_P1;PMS_P2;Temp;Humidity;BMP_temperature;BMP_pressure;BME280_temperature;BME280_humidity;BME280_pressure;Samples;Min_cycle;Max_cycle;Signal;HPM_P1;HPM_P2
2023/04/20 00:00:10;;;;;;;9.50;5.68;;;;;;;2.92;100.00;98526.22;2577974;28;20050;-81
2023/04/20 00:01:31;;;;;;;10.50;6.25;;;;;;;2.96;100.00;98522.78;2568265;28;20061;-82
2023/04/20 00:02:47;;;;;;;9.65;5.75;;;;;;;3.03;100.00;98521.09;2576450;28;20050;-81
2023/04/20 00:04:02;;;;;;;11.43;6.00;;;;;;;2.90;100.00;98519.31;2578293;28;20077;-83
2023/04/20 00:05:18;;;;;;;10.27;6.10;;;;;;;2.52;100.00;98520.88;2578748;28;20047;-82
2023/04/20 00:06:35;;;;;;;9.35;5.72;;;;;;;2.54;100.00;98527.75;2578912;28;20046;-82
2023/04/20 00:07:53;;;;;;;9.88;5.85;;;;;;;2.57;100.00;98516.56;2578614;28;20046;-81
2023/04/20 00:09:12;;;;;;;10.00;5.68;;;;;;;2.45;100.00;98511.34;2578653;28;20137;-82
2023/04/20 00:10:28;;;;;;;9.20;5.53;;;;;;;2.48;100.00;98516.50;2578035;28;20080;-81
2023/04/20 00:11:43;;;;;;;9.25;5.78;;;;;;;2.30;100.00;98512.97;2578103;28;20043;-81
2023/04/20 00:12:59;;;;;;;10.00;5.78;;;;;;;2.46;100.00;98505.31;2578058;28;20046;-81
2023/04/20 00:14:15;;;;;;;10.68;5.90;;;;;;;2.50;100.00;98510.50;2578625;28;20054;-82
2023/04/20 00:15:30;;;;;;;9.02;5.88;;;;;;;2.50;100.00;98514.78;2578718;28;20050;-81
2023/04/20 00:16:47;;;;;;;9.70;5.55;;;;;;;2.52;100.00;98513.97;2578599;28;20054;-81
2023/04/20 00:18:03;;;;;;;9.45;5.43;;;;;;;2.29;100.00;98511.25;2578535;28;20053;-81
2023/04/20 00:19:21;;;;;;;9.70;5.57;;;;;;;2.13;100.00;98507.69;2578588;28;20081;-81
2023/04/20 00:20:37;;;;;;;9.43;5.43;;;;;;;2.26;100.00;98518.97;2578617;28;20046;-81
2023/04/20 00:21:53;;;;;;;8.43;5.03;;;;;;;2.20;100.00;98512.06;2578585;28;20093;-81
2023/04/20 00:23:08;;;;;;;8.75;5.35;;;;;;;2.02;100.00;98510.19;2578648;28;20501;-81
2023/04/20 00:24:24;;;;;;;9.93;5.90;;;;;;;2.14;100.00;98508.56;2578598;28;20050;-82
2023/04/20 00:25:39;;;;;;;8.77;5.43;;;;;;;2.06;100.00;98509.34;2578441;28;20189;-81
2023/04/20 00:26:55;;;;;;;10.75;5.93;;;;;;;2.18;100.00;98508.59;2578499;28;20054;-81
2023/04/20 00:28:10;;;;;;;12.35;5.93;;;;;;;1.96;100.00;98507.56;2578775;28;20046;-81
2023/04/20 00:29:26;;;;;;;9.98;5.72;;;;;;;2.17;100.00;98506.88;2578470;28;20137;-82
2023/04/20 00:30:42;;;;;;;11.02;6.05;;;;;;;2.02;100.00;98504.16;2578400;28;20050;-81
2023/04/20 00:31:57;;;;;;;8.98;5.72;;;;;;;2.21;100.00;98497.41;2576633;28;20046;-82
2023/04/20 00:33:13;;;;;;;13.63;6.22;;;;;;;2.29;100.00;98506.06;2577871;28;20058;-82
2023/04/20 00:34:28;;;;;;;9.43;5.97;;;;;;;1.96;100.00;98499.84;2578122;28;20050;-82
2023/04/20 00:35:44;;;;;;;11.02;5.47;;;;;;;2.06;100.00;98506.78;2578538;28;20116;-81
2023/04/20 00:37:00;;;;;;;10.40;5.93;;;;;;;2.22;100.00;98505.16;2578532;28;20046;-81
2023/04/20 00:38:15;;;;;;;9.70;5.45;;;;;;;2.19;100.00;98509.44;2578250;28;20057;-82
2023/04/20 00:39:31;;;;;;;10.18;5.95;;;;;;;2.10;100.00;98502.50;2578432;28;20077;-81
2023/04/20 00:40:51;;;;;;;9.60;5.53;;;;;;;1.88;100.00;98504.06;2578363;28;20054;-81
2023/04/20 00:42:07;;;;;;;9.50;5.53;;;;;;;1.88;100.00;98506.63;2578371;28;20482;-81
2023/04/20 00:43:23;;;;;;;8.68;5.65;;;;;;;2.00;100.00;98498.13;2578305;28;20193;-81
2023/04/20 00:44:39;;;;;;;10.23;5.47;;;;;;;1.97;100.00;98496.41;2578281;28;20051;-81
2023/04/20 00:45:54;;;;;;;9.90;5.00;;;;;;;1.49;100.00;98501.16;2578586;28;20061;-81
2023/04/20 00:47:10;;;;;;;11.25;5.75;;;;;;;1.46;100.00;98501.09;2578365;28;20516;-81
2023/04/20 00:48:26;;;;;;;9.45;5.82;;;;;;;1.78;100.00;98492.78;2578300;28;20082;-81
2023/04/20 00:49:42;;;;;;;9.85;5.53;;;;;;;1.85;100.00;98501.47;2578369;28;20062;-81
2023/04/20 00:50:58;;;;;;;10.35;5.68;;;;;;;1.94;100.00;98496.34;2578354;28;20399;-81
2023/04/20 00:52:14;;;;;;;10.10;5.22;;;;;;;1.73;100.00;98495.34;2578140;28;20070;-81
2023/04/20 00:53:29;;;;;;;11.95;6.80;;;;;;;1.62;100.00;98499.53;2577538;28;20494;-81
2023/04/20 00:54:45;;;;;;;12.50;6.20;;;;;;;1.72;100.00;98493.59;2577656;28;20054;-81
2023/04/20 00:56:01;;;;;;;13.18;7.00;;;;;;;1.82;100.00;98492.84;2578272;28;20058;-81
2023/04/20 00:57:22;;;;;;;11.25;6.00;;;;;;;1.50;100.00;98492.56;2578226;28;20046;-81
2023/04/20 00:58:38;;;;;;;11.20;5.82;;;;;;;1.37;100.00;98491.56;2578283;28;20136;-81
2023/04/20 00:59:53;;;;;;;9.98;5.90;;;;;;;1.55;100.00;98490.88;2578106;28;20121;-82
2023/04/20 01:01:10;;;;;;;10.95;6.57;;;;;;;1.66;100.00;98486.69;2578249;28;20355;-81
2023/04/20 01:02:26;;;;;;;10.73;5.63;;;;;;;1.44;100.00;98485.63;2577319;28;20056;-81
2023/04/20 01:03:43;;;;;;;11.57;6.32;;;;;;;1.58;100.00;98484.88;2577681;28;20054;-81
2023/04/20 01:04:58;;;;;;;10.20;6.00;;;;;;;1.79;100.00;98487.63;2578273;28;20061;-81
2023/04/20 01:06:14;;;;;;;13.25;6.18;;;;;;;1.52;100.00;98490.84;2578147;28;20145;-81
2023/04/20 01:07:30;;;;;;;10.10;5.05;;;;;;;1.17;100.00;98481.91;2578010;28;20080;-81
2023/04/20 01:08:48;;;;;;;12.80;6.60;;;;;;;1.35;100.00;98480.34;2578165;28;20050;-81
2023/04/20 01:10:05;;;;;;;11.90;6.82;;;;;;;1.65;100.00;98487.53;2578275;28;20349;-81
2023/04/20 01:11:21;;;;;;;11.38;6.35;;;;;;;1.69;100.00;98480.69;2577005;28;20046;-81
2023/04/20 01:12:36;;;;;;;12.75;6.93;;;;;;;1.72;100.00;98478.13;2577697;28;20050;-81
2023/04/20 01:13:52;;;;;;;11.30;6.13;;;;;;;1.49;100.00;98485.66;2577981;28;20057;-81
2023/04/20 01:15:08;;;;;;;12.93;6.28;;;;;;;1.62;100.00;98479.78;2577975;28;20090;-81
2023/04/20 01:16:24;;;;;;;10.82;6.57;;;;;;;1.58;100.00;98479.72;2578097;28;20055;-82
2023/04/20 01:17:39;;;;;;;11.52;6.35;;;;;;;1.54;100.00;98484.88;2578018;28;20046;-81
2023/04/20 01:18:56;;;;;;;12.15;6.97;;;;;;;1.55;100.00;98470.22;2578109;28;20109;-81
2023/04/20 01:20:11;;;;;;;10.38;5.88;;;;;;;1.54;100.00;98473.66;2578267;28;20046;-81
2023/04/20 01:21:27;;;;;;;11.05;5.68;;;;;;;1.35;100.00;98470.03;2577909;28;20494;-81
2023/04/20 01:22:49;;;;;;;12.07;7.18;;;;;;;1.31;100.00;98471.72;2578266;28;20149;-81
2023/04/20 01:24:05;;;;;;;10.48;5.70;;;;;;;1.37;100.00;98470.91;2577883;28;20042;-81
2023/04/20 01:25:21;;;;;;;10.85;5.68;;;;;;;1.27;100.00;98478.59;2577301;28;20058;-81
2023/04/20 01:26:36;;;;;;;9.75;5.30;;;;;;;1.18;100.00;98475.91;2578137;28;20054;-81
2023/04/20 01:27:52;;;;;;;9.45;5.22;;;;;;;1.19;100.00;98475.06;2578089;28;20092;-81
2023/04/20 01:29:07;;;;;;;11.95;5.47;;;;;;;1.12;100.00;98466.38;2577973;28;20053;-81
2023/04/20 01:30:23;;;;;;;10.73;6.32;;;;;;;1.25;100.00;98466.50;2577396;28;20414;-81
2023/04/20 01:31:38;;;;;;;9.52;6.20;;;;;;;1.20;100.00;98466.47;2577604;28;20064;-81
2023/04/20 01:32:54;;;;;;;11.45;6.30;;;;;;;1.16;100.00;98469.88;2577928;28;20400;-81
2023/04/20 01:34:10;;;;;;;10.18;6.38;;;;;;;1.23;100.00;98469.06;2575482;28;20494;-81
2023/04/20 01:35:25;;;;;;;11.90;6.28;;;;;;;1.32;100.00;98467.44;2576633;28;20062;-81
2023/04/20 01:36:41;;;;;;;11.02;5.30;;;;;;;1.08;100.00;98464.63;2577206;28;20493;-81
2023/04/20 01:37:57;;;;;;;7.88;5.00;;;;;;;1.10;100.00;98469.78;2577979;28;20050;-81
2023/04/20 01:39:12;;;;;;;8.60;5.10;;;;;;;1.00;100.00;98467.97;2577841;28;20108;-81
2023/04/20 01:40:28;;;;;;;9.85;5.47;;;;;;;1.07;100.00;98465.50;2578053;28;20061;-82
2023/04/20 01:41:43;;;;;;;10.00;5.32;;;;;;;1.05;100.00;98466.31;2578065;28;20125;-81
2023/04/20 01:42:59;;;;;;;8.45;5.07;;;;;;;0.96;100.00;98461.94;2577763;28;20441;-81
2023/04/20 01:44:15;;;;;;;9.73;5.30;;;;;;;0.87;100.00;98460.13;2578046;28;20070;-81
2023/04/20 01:45:30;;;;;;;10.27;5.68;;;;;;;0.88;100.00;98469.56;2577634;28;20133;-81
2023/04/20 01:46:46;;;;;;;8.75;4.97;;;;;;;0.87;100.00;98459.22;2577190;28;20050;-81
2023/04/20 01:48:01;;;;;;;10.57;5.72;;;;;;;0.84;100.00;98460.09;2577486;28;20090;-81
2023/04/20 01:49:17;;;;;;;12.00;6.18;;;;;;;0.84;100.00;98462.66;2577428;28;20082;-81
2023/04/20 01:50:33;;;;;;;10.73;5.65;;;;;;;0.87;100.00;98459.22;2577854;28;20050;-81
2023/04/20 01:51:49;;;;;;;12.77;6.57;;;;;;;0.90;100.00;98452.41;2577929;28;20053;-81
2023/04/20 01:53:04;;;;;;;13.13;6.43;;;;;;;0.89;100.00;98463.56;2577765;28;20078;-82
2023/04/20 01:54:20;;;;;;;9.32;5.90;;;;;;;0.96;100.00;98455.03;2577822;28;21038;-81
2023/04/20 01:55:35;;;;;;;10.35;5.70;;;;;;;1.06;100.00;98457.72;2577789;28;20046;-81
2023/04/20 01:56:51;;;;;;;10.48;6.50;;;;;;;1.14;100.00;98466.41;2577655;28;20107;-83
2023/04/20 01:58:07;;;;;;;13.05;5.85;;;;;;;1.18;100.00;98464.72;2577799;28;20053;-81
2023/04/20 01:59:22;;;;;;;8.93;4.97;;;;;;;1.25;100.00;98467.38;2577734;28;20057;-81
2023/04/20 02:00:38;;;;;;;13.13;6.70;;;;;;;1.12;100.00;98466.38;2577716;28;20430;-81
2023/04/20 02:01:54;;;;;;;10.57;5.70;;;;;;;1.13;100.00;98469.84;2576957;28;20613;-81
2023/04/20 02:03:09;;;;;;;10.65;6.22;;;;;;;1.12;100.00;98463.81;2577221;28;20058;-81
2023/04/20 02:04:25;;;;;;;11.50;5.90;;;;;;;0.89;100.00;98460.09;2577875;28;20124;-81
2023/04/20 02:05:41;;;;;;;10.18;5.25;;;;;;;0.52;100.00;98456.28;2577573;28;20100;-81
2023/04/20 02:06:56;;;;;;;10.43;6.00;;;;;;;0.52;100.00;98453.69;2577639;28;20883;-81
2023/04/20 02:08:12;;;;;;;9.57;6.05;;;;;;;0.53;100.00;98455.41;2577042;28;20572;-81
2023/04/20 02:09:28;;;;;;;12.02;6.28;;;;;;;0.70;100.00;98463.38;2577093;28;20061;-81
2023/04/20 02:10:43;;;;;;;12.00;6.57;;;;;;;0.84;100.00;98455.78;2577817;28;20050;-81
2023/04/20 02:12:00;;;;;;;12.23;6.60;;;;;;;0.92;100.00;98458.44;2577522;28;20223;-81
2023/04/20 02:13:16;;;;;;;12.43;6.03;;;;;;;0.97;100.00;98459.34;2577656;28;20050;-81
2023/04/20 02:14:31;;;;;;;14.07;6.68;;;;;;;1.07;100.00;98462.91;2577927;28;20069;-81
2023/04/20 02:15:47;;;;;;;15.18;6.50;;;;;;;1.16;100.00;98461.25;2577712;28;20050;-81
2023/04/20 02:17:03;;;;;;;10.70;6.05;;;;;;;1.15;100.00;98454.38;2577628;28;20054;-81
2023/04/20 02:18:18;;;;;;;11.55;5.80;;;;;;;1.18;100.00;98457.84;2577727;28;20057;-81
2023/04/20 02:19:35;;;;;;;12.30;6.38;;;;;;;1.19;100.00;98456.13;2577559;28;20046;-81
2023/04/20 02:20:51;;;;;;;12.23;6.20;;;;;;;1.19;100.00;98459.59;2577675;28;20061;-81
2023/04/20 02:22:06;;;;;;;11.30;6.15;;;;;;;1.21;100.00;98450.13;2577837;28;20078;-81
2023/04/20 02:23:22;;;;;;;12.25;6.20;;;;;;;1.17;100.00;98453.53;2576840;28;20097;-81
2023/04/20 02:24:37;;;;;;;13.30;6.25;;;;;;;1.16;100.00;98456.97;2577348;28;20049;-81
2023/04/20 02:25:53;;;;;;;11.70;5.85;;;;;;;1.01;100.00;98451.66;2577714;28;20054;-81
2023/04/20 02:27:10;;;;;;;10.40;5.18;;;;;;;0.91;100.00;98456.72;2577302;28;20065;-82
2023/04/20 02:28:25;;;;;;;13.20;5.82;;;;;;;1.07;100.00;98451.72;2577954;28;20050;-81
2023/04/20 02:29:41;;;;;;;12.13;6.55;;;;;;;1.15;100.00;98454.38;2577786;28;20043;-81
2023/04/20 02:30:56;;;;;;;10.00;5.90;;;;;;;1.13;100.00;98465.53;2577257;28;20050;-81
2023/04/20 02:32:12;;;;;;;12.18;6.00;;;;;;;0.97;100.00;98451.59;2577980;28;20046;-81
2023/04/20 02:33:27;;;;;;;11.00;6.00;;;;;;;0.87;100.00;98446.34;2577840;28;20047;-82
2023/04/20 02:34:43;;;;;;;9.75;5.28;;;;;;;0.86;100.00;98442.91;2576727;28;20104;-81
2023/04/20 02:35:59;;;;;;;10.20;5.50;;;;;;;0.76;100.00;98451.38;2577374;28;20049;-81
2023/04/20 02:37:15;;;;;;;12.43;6.70;;;;;;;0.93;100.00;98451.59;2579555;28;20054;-81
2023/04/20 02:38:31;;;;;;;10.25;5.90;;;;;;;1.08;100.00;98454.31;2579658;28;20108;-81
2023/04/20 02:39:46;;;;;;;11.15;5.80;;;;;;;1.11;100.00;98458.63;2579730;28;20046;-81
2023/04/20 02:41:02;;;;;;;15.05;6.07;;;;;;;1.07;100.00;98451.72;2579641;28;20465;-81
2023/04/20 02:42:17;;;;;;;19.25;6.55;;;;;;;1.08;100.00;98449.16;2576972;28;20141;-82
2023/04/20 02:43:35;;;;;;;16.52;6.25;;;;;;;1.11;100.00;98456.94;2579675;28;20051;-81
2023/04/20 02:44:51;;;;;;;12.65;6.50;;;;;;;1.06;100.00;98447.41;2579503;28;20144;-81
2023/04/20 02:46:07;;;;;;;18.17;6.75;;;;;;;1.02;100.00;98450.81;2579510;28;20137;-81
2023/04/20 02:47:22;;;;;;;29.02;6.75;;;;;;;1.13;100.00;98452.66;2579744;28;20055;-81
2023/04/20 02:48:38;;;;;;;12.52;5.85;;;;;;;1.18;100.00;98446.66;2579326;28;20058;-81
2023/04/20 02:49:54;;;;;;;16.73;6.28;;;;;;;1.12;100.00;98445.75;2579437;28;20372;-81
2023/04/20 02:51:09;;;;;;;21.02;6.45;;;;;;;1.17;100.00;98445.81;2579542;28;20046;-81
2023/04/20 02:52:24;;;;;;;16.90;6.35;;;;;;;1.04;100.00;98441.38;2579595;28;20090;-81
2023/04/20 02:53:40;;;;;;;22.88;6.18;;;;;;;1.17;100.00;98444.94;2579480;28;20475;-81
2023/04/20 02:54:56;;;;;;;12.90;6.57;;;;;;;1.19;100.00;98454.41;2579581;28;20054;-82
2023/04/20 02:56:11;;;;;;;12.00;6.03;;;;;;;1.32;100.00;98457.97;2579301;28;20054;-81
2023/04/20 02:57:27;;;;;;;48.13;8.18;;;;;;;1.32;100.00;98454.53;2579506;28;20593;-81
2023/04/20 02:58:42;;;;;;;18.42;6.95;;;;;;;1.31;100.00;98448.50;2579491;28;20050;-81
2023/04/20 02:59:58;;;;;;;69.10;8.88;;;;;;;1.24;100.00;98455.31;2579477;28;20046;-81
2023/04/20 03:01:14;;;;;;;23.42;6.53;;;;;;;1.18;100.00;98452.69;2579312;28;20085;-81
2023/04/20 03:02:30;;;;;;;15.13;6.57;;;;;;;1.27;100.00;98457.06;2579191;28;20406;-81
2023/04/20 03:03:45;;;;;;;14.65;6.63;;;;;;;1.03;100.00;98453.38;2579308;28;20050;-81
2023/04/20 03:05:02;;;;;;;40.60;7.35;;;;;;;1.08;100.00;98448.28;2579384;28;20058;-81
2023/04/20 03:06:17;;;;;;;49.83;8.77;;;;;;;0.87;100.00;98443.75;2579236;28;20085;-81
2023/04/20 03:07:33;;;;;;;40.33;7.22;;;;;;;1.02;100.00;98443.09;2579300;28;20058;-81
2023/04/20 03:08:49;;;;;;;27.85;7.32;;;;;;;1.11;100.00;98448.31;2578538;28;20056;-81
2023/04/20 03:10:05;;;;;;;19.48;7.20;;;;;;;1.10;100.00;98442.31;2578932;28;20050;-81
2023/04/20 03:11:20;;;;;;;14.48;5.80;;;;;;;1.21;100.00;98447.56;2579248;28;20490;-81
2023/04/20 03:12:36;;;;;;;17.58;6.55;;;;;;;1.37;100.00;98445.13;2579226;28;20081;-81
2023/04/20 03:13:51;;;;;;;16.30;6.20;;;;;;;1.39;100.00;98456.31;2578570;28;20050;-81
2023/04/20 03:15:08;;;;;;;12.55;5.57;;;;;;;1.31;100.00;98455.41;2572352;28;20047;-81
2023/04/20 03:16:23;;;;;;;13.90;5.80;;;;;;;1.13;100.00;98451.78;2578636;28;20505;-81
2023/04/20 03:17:39;;;;;;;20.73;5.53;;;;;;;1.08;100.00;98450.88;2579378;28;20101;-81
2023/04/20 03:18:55;;;;;;;16.25;6.70;;;;;;;1.07;100.00;98451.72;2579297;28;20046;-81
2023/04/20 03:20:11;;;;;;;12.82;5.75;;;;;;;0.90;100.00;98446.38;2579075;28;20050;-81
2023/04/20 03:21:26;;;;;;;18.58;6.43;;;;;;;1.22;100.00;98451.88;2579188;28;20058;-81
2023/04/20 03:22:42;;;;;;;10.85;5.28;;;;;;;1.30;100.00;98449.34;2579248;28;20438;-81
2023/04/20 03:23:58;;;;;;;10.13;5.25;;;;;;;1.30;100.00;98451.94;2579180;28;20050;-81
2023/04/20 03:25:15;;;;;;;11.68;5.97;;;;;;;1.37;100.00;98445.13;2579327;28;20424;-81
2023/04/20 03:26:30;;;;;;;11.75;6.00;;;;;;;1.33;100.00;98444.25;2578806;28;20050;-81
2023/04/20 03:27:46;;;;;;;10.55;5.32;;;;;;;1.25;100.00;98441.56;2579217;28;20462;-81
2023/04/20 03:29:02;;;;;;;12.57;5.10;;;;;;;1.30;100.00;98443.34;2579252;28;20092;-81
2023/04/20 03:30:17;;;;;;;10.02;5.85;;;;;;;1.39;100.00;98440.84;2578999;28;20546;-81
2023/04/20 03:31:33;;;;;;;12.98;6.10;;;;;;;1.21;100.00;98441.56;2578736;28;20072;-81
2023/04/20 03:32:48;;;;;;;11.27;5.72;;;;;;;1.32;100.00;98446.81;2579028;28;20960;-81
2023/04/20 03:34:04;;;;;;;10.80;5.80;;;;;;;1.28;100.00;98440.75;2578842;28;20113;-81
2023/04/20 03:35:20;;;;;;;8.13;4.18;;;;;;;1.30;100.00;98449.34;2579118;28;20438;-81
2023/04/20 03:36:36;;;;;;;11.73;5.53;;;;;;;1.51;100.00;98446.09;2578608;28;20108;-81
2023/04/20 03:37:51;;;;;;;10.77;5.65;;;;;;;1.50;100.00;98449.53;2579232;28;20078;-81
2023/04/20 03:39:07;;;;;;;10.48;5.53;;;;;;;1.38;100.00;98452.88;2579008;28;20082;-81
2023/04/20 03:40:23;;;;;;;15.30;6.60;;;;;;;1.35;100.00;98450.28;2578915;28;20065;-81
2023/04/20 03:41:39;;;;;;;11.55;5.93;;;;;;;1.35;100.00;98452.88;2579027;28;20486;-81
2023/04/20 03:42:54;;;;;;;13.25;6.18;;;;;;;1.47;100.00;98453.84;2578988;28;20405;-81
2023/04/20 03:44:10;;;;;;;13.32;6.28;;;;;;;1.57;100.00;98458.19;2578681;28;20132;-81
2023/04/20 03:45:26;;;;;;;15.70;7.30;;;;;;;1.63;100.00;98458.28;2579130;28;20046;-82
2023/04/20 03:46:41;;;;;;;17.00;7.35;;;;;;;1.65;100.00;98463.41;2578930;28;20054;-81
2023/04/20 03:47:57;;;;;;;15.82;6.80;;;;;;;1.70;100.00;98459.19;2578187;28;20046;-81
2023/04/20 03:49:12;;;;;;;17.20;6.90;;;;;;;1.82;100.00;98455.81;2578911;28;20058;-81
2023/04/20 03:50:28;;;;;;;16.45;7.25;;;;;;;1.83;100.00;98453.25;2578833;28;20046;-81
2023/04/20 03:51:44;;;;;;;28.48;8.48;;;;;;;1.77;100.00;98454.94;2578882;28;20054;-80
2023/04/20 03:52:59;;;;;;;17.17;6.97;;;;;;;1.57;100.00;98452.19;2578974;28;20046;-81
2023/04/20 03:54:15;;;;;;;22.73;6.47;;;;;;;1.70;100.00;98451.44;2578682;28;20050;-80
2023/04/20 03:55:31;;;;;;;13.07;6.90;;;;;;;1.56;100.00;98446.16;2575136;28;20054;-80
2023/04/20 03:56:48;;;;;;;12.88;5.05;;;;;;;1.49;100.00;98446.97;2577881;28;21066;-80
2023/04/20 03:58:05;;;;;;;39.15;7.78;;;;;;;1.26;100.00;98445.91;2578929;28;20092;-81
2023/04/20 03:59:21;;;;;;;17.05;7.65;;;;;;;1.54;100.00;98455.59;2578878;28;20089;-80
2023/04/20 04:00:36;;;;;;;16.55;7.30;;;;;;;1.48;100.00;98448.66;2578871;28;20042;-80
2023/04/20 04:01:53;;;;;;;19.33;7.60;;;;;;;1.64;100.00;98451.38;2578937;28;20050;-82
2023/04/20 04:03:09;;;;;;;13.05;7.32;;;;;;;1.72;100.00;98456.59;2578229;28;20050;-81
2023/04/20 04:04:24;;;;;;;15.65;7.03;;;;;;;1.66;100.00;98454.81;2578310;28;20097;-81
2023/04/20 04:05:40;;;;;;;19.42;7.60;;;;;;;1.75;100.00;98452.31;2578582;28;20057;-80
2023/04/20 04:06:56;;;;;;;17.88;7.70;;;;;;;1.77;100.00;98453.19;2578798;28;20074;-80
2023/04/20 04:08:11;;;;;;;15.05;7.28;;;;;;;1.84;100.00;98454.09;2578710;28;20057;-81
2023/04/20 04:09:27;;;;;;;16.95;7.60;;;;;;;1.88;100.00;98457.59;2578959;28;20049;-81
2023/04/20 04:10:43;;;;;;;16.92;7.78;;;;;;;1.99;100.00;98450.78;2578508;28;20054;-81
2023/04/20 04:11:58;;;;;;;14.52;7.82;;;;;;;1.88;100.00;98457.59;2578595;28;20050;-81
2023/04/20 04:13:14;;;;;;;18.55;8.23;;;;;;;2.11;100.00;98450.00;2578769;28;20050;-81
2023/04/20 04:14:30;;;;;;;15.50;7.20;;;;;;;2.01;100.00;98461.09;2578284;28;20057;-81
2023/04/20 04:15:45;;;;;;;17.20;7.80;;;;;;;2.06;100.00;98462.03;2578498;28;20054;-81
2023/04/20 04:17:01;;;;;;;14.00;6.85;;;;;;;2.08;100.00;98455.16;2578466;28;20053;-81
2023/04/20 04:18:16;;;;;;;14.55;6.60;;;;;;;2.11;100.00;98452.56;2578656;28;20054;-81
2023/04/20 04:19:32;;;;;;;16.33;7.22;;;;;;;2.23;100.00;98454.34;2578826;28;20042;-81
2023/04/20 04:20:48;;;;;;;14.88;7.65;;;;;;;2.31;100.00;98454.44;2578593;28;20050;-81
2023/04/20 04:22:04;;;;;;;13.35;7.32;;;;;;;2.12;100.00;98446.53;2578633;28;20069;-81
2023/04/20 04:23:19;;;;;;;12.32;7.15;;;;;;;2.17;100.00;98452.63;2578745;28;20057;-81
2023/04/20 04:24:37;;;;;;;12.88;6.78;;;;;;;2.15;100.00;98449.16;2578574;28;20502;-81
2023/04/20 04:25:53;;;;;;;12.75;7.03;;;;;;;2.18;100.00;98450.88;2578629;28;20188;-81
2023/04/20 04:27:09;;;;;;;13.27;6.93;;;;;;;2.25;100.00;98457.84;2578476;28;20446;-81
2023/04/20 04:28:25;;;;;;;16.40;7.43;;;;;;;2.21;100.00;98459.53;2578233;28;20081;-81
2023/04/20 04:29:41;;;;;;;14.40;7.32;;;;;;;2.34;100.00;98454.44;2578604;28;20069;-81
2023/04/20 04:30:56;;;;;;;14.38;7.43;;;;;;;2.34;100.00;98455.28;2578487;28;20046;-81
2023/04/20 04:32:12;;;;;;;14.25;6.63;;;;;;;2.25;100.00;98455.25;2578479;28;20069;-81
2023/04/20 04:33:28;;;;;;;13.70;6.90;;;;;;;1.96;100.00;98461.09;2578603;28;20038;-82
2023/04/20 04:34:44;;;;;;;13.60;6.75;;;;;;;2.19;100.00;98458.66;2578253;28;20489;-81
2023/04/20 04:36:00;;;;;;;13.32;6.97;;;;;;;2.30;100.00;98452.66;2578500;28;20482;-82
2023/04/20 04:37:16;;;;;;;13.77;6.88;;;;;;;2.29;100.00;98459.56;2578090;28;20149;-81
2023/04/20 04:38:32;;;;;;;13.27;6.90;;;;;;;2.25;100.00;98458.69;2578744;28;20057;-81
2023/04/20 04:39:48;;;;;;;13.13;7.00;;;;;;;2.39;100.00;98458.78;2578205;28;20068;-81
2023/04/20 04:41:04;;;;;;;13.20;6.43;;;;;;;2.15;100.00;98456.03;2577436;28;20086;-81
2023/04/20 04:42:20;;;;;;;12.50;6.93;;;;;;;2.18;100.00;98463.81;2577926;28;20502;-81
2023/04/20 04:43:36;;;;;;;12.75;6.72;;;;;;;2.39;100.00;98460.47;2578525;28;20473;-81
2023/04/20 04:44:53;;;;;;;14.25;6.45;;;;;;;2.41;100.00;98469.09;2578414;28;20082;-81
2023/04/20 04:46:10;;;;;;;13.20;7.07;;;;;;;2.49;100.00;98463.97;2578272;28;20101;-81
2023/04/20 04:47:28;;;;;;;14.25;7.32;;;;;;;2.18;100.00;98469.84;2578131;28;20104;-81
2023/04/20 04:48:45;;;;;;;15.00;7.55;;;;;;;2.17;100.00;98465.53;2577666;28;20082;-82
2023/04/20 04:50:02;;;;;;;15.52;7.20;;;;;;;2.21;100.00;98464.69;2578180;28;20057;-81
2023/04/20 04:51:18;;;;;;;17.42;7.82;;;;;;;2.40;100.00;98459.63;2577901;28;20042;-81
2023/04/20 04:52:33;;;;;;;12.30;6.53;;;;;;;2.47;100.00;98465.69;2577961;28;20053;-81
2023/04/20 04:53:49;;;;;;;12.85;6.50;;;;;;;2.40;100.00;98464.78;2578456;28;20054;-80
2023/04/20 04:55:08;;;;;;;17.98;7.70;;;;;;;2.18;100.00;98466.38;2577664;28;20050;-81
2023/04/20 04:56:24;;;;;;;16.77;8.23;;;;;;;2.46;100.00;98462.25;2578296;28;20062;-81
2023/04/20 04:57:40;;;;;;;14.30;7.03;;;;;;;2.24;100.00;98466.44;2578239;28;20050;-81
2023/04/20 04:58:55;;;;;;;18.45;8.45;;;;;;;2.38;100.00;98459.63;2578079;28;20104;-81
2023/04/20 05:00:11;;;;;;;15.52;7.55;;;;;;;2.39;100.00;98466.53;2578526;28;20062;-81
2023/04/20 05:01:27;;;;;;;16.15;7.90;;;;;;;2.54;100.00;98459.72;2578103;28;20070;-81
2023/04/20 05:02:42;;;;;;;13.98;7.03;;;;;;;2.60;100.00;98462.31;2577745;28;20054;-81
2023/04/20 05:03:59;;;;;;;15.20;7.53;;;;;;;2.63;100.00;98461.47;2577807;28;20133;-81
2023/04/20 05:05:15;;;;;;;13.52;7.43;;;;;;;2.75;100.00;98468.41;2576844;28;20053;-81
2023/04/20 05:06:31;;;;;;;14.57;7.47;;;;;;;2.85;100.00;98467.59;2577211;28;20414;-81
2023/04/20 05:07:47;;;;;;;14.90;6.57;;;;;;;2.87;100.00;98465.84;2577779;28;20038;-81
2023/04/20 05:09:03;;;;;;;13.73;6.82;;;;;;;2.92;100.00;98456.38;2577957;28;20054;-81
2023/04/20 05:10:18;;;;;;;12.50;6.88;;;;;;;2.99;100.00;98459.84;2577231;28;20058;-81
2023/04/20 05:11:34;;;;;;;13.63;7.03;;;;;;;3.06;100.00;98464.19;2577646;28;20082;-82
2023/04/20 05:12:51;;;;;;;15.52;7.47;;;;;;;2.98;100.00;98460.72;2577904;28;20104;-81
2023/04/20 05:14:06;;;;;;;15.48;8.07;;;;;;;3.00;100.00;98455.56;2577739;28;20050;-82
2023/04/20 05:15:22;;;;;;;15.82;8.70;;;;;;;3.09;100.00;98453.00;2578076;28;20918;-81
2023/04/20 05:16:37;;;;;;;17.33;8.23;;;;;;;2.97;100.00;98454.69;2577806;28;20054;-81
2023/04/20 05:17:53;;;;;;;14.90;8.05;;;;;;;2.93;100.00;98455.56;2578009;28;20085;-81
2023/04/20 05:19:09;;;;;;;16.73;8.15;;;;;;;3.07;100.00;98458.16;2577935;28;20078;-81
2023/04/20 05:20:24;;;;;;;15.70;7.57;;;;;;;2.89;100.00;98456.38;2577670;28;20057;-81
2023/04/20 05:21:40;;;;;;;13.77;8.07;;;;;;;2.92;100.00;98455.53;2577933;28;20498;-82
2023/04/20 05:22:55;;;;;;;13.50;7.57;;;;;;;3.11;100.00;98456.44;2577927;28;20502;-82
2023/04/20 05:24:11;;;;;;;15.15;7.97;;;;;;;3.05;100.00;98464.19;2577899;28;20046;-81
2023/04/20 05:25:26;;;;;;;16.92;8.68;;;;;;;3.10;100.00;98468.50;2577918;28;20053;-81
2023/04/20 05:26:42;;;;;;;17.08;8.50;;;;;;;3.18;100.00;98462.50;2577819;28;20126;-81
2023/04/20 05:27:58;;;;;;;17.45;9.05;;;;;;;3.28;100.00;98465.97;2577940;28;20057;-81
2023/04/20 05:29:15;;;;;;;15.80;8.40;;;;;;;3.17;100.00;98465.94;2577907;28;20137;-82
2023/04/20 05:30:31;;;;;;;17.67;8.93;;;;;;;3.39;100.00;98470.28;2577861;28;20050;-81
2023/04/20 05:31:46;;;;;;;19.75;9.18;;;;;;;3.36;100.00;98465.13;2577962;28;20096;-81
2023/04/20 05:33:02;;;;;;;19.45;8.57;;;;;;;3.21;100.00;98467.69;2577866;28;20054;-81
2023/04/20 05:34:18;;;;;;;20.35;8.75;;;;;;;3.18;100.00;98473.69;2577515;28;20137;-82
2023/04/20 05:35:33;;;;;;;22.02;9.15;;;;;;;3.15;100.00;98471.13;2577760;28;20069;-81
2023/04/20 05:36:50;;;;;;;18.25;9.20;;;;;;;3.18;100.00;98468.53;2577856;28;20137;-81
2023/04/20 05:38:06;;;;;;;17.90;8.20;;;;;;;3.10;100.00;98475.41;2577761;28;20050;-81
2023/04/20 05:39:22;;;;;;;20.17;8.43;;;;;;;3.11;100.00;98472.81;2577945;28;20145;-83
2023/04/20 05:40:38;;;;;;;15.30;7.65;;;;;;;3.11;100.00;98477.16;2577734;28;20065;-81
2023/04/20 05:41:53;;;;;;;17.52;8.55;;;;;;;3.09;100.00;98473.69;2577618;28;20058;-81
2023/04/20 05:43:09;;;;;;;17.45;8.00;;;;;;;3.24;100.00;98475.44;2577642;28;20116;-87
2023/04/20 05:44:24;;;;;;;16.80;8.30;;;;;;;3.37;100.00;98478.94;2576646;28;20104;-86
2023/04/20 05:45:40;;;;;;;14.43;7.75;;;;;;;3.42;100.00;98471.16;2577327;28;20105;-88
2023/04/20 05:46:55;;;;;;;13.60;7.25;;;;;;;3.29;100.00;98480.63;2577645;28;20069;-87
2023/04/20 05:48:11;;;;;;;13.95;7.97;;;;;;;3.64;100.00;98482.41;2577646;28;20108;-87
2023/04/20 05:49:27;;;;;;;15.48;7.85;;;;;;;3.57;100.00;98480.66;2577782;28;20057;-86
2023/04/20 05:50:42;;;;;;;15.07;8.27;;;;;;;3.67;100.00;98485.84;2577623;28;20410;-86
2023/04/20 05:51:58;;;;;;;17.38;8.70;;;;;;;3.87;100.00;98474.66;2577577;28;20621;-81
2023/04/20 05:53:14;;;;;;;17.88;9.02;;;;;;;3.70;100.00;98478.94;2577891;28;20538;-80